Time;durP1;ratioP1;P1;durP2;ratioP2;P2;SDS_P1;SDS_P2;PMS_P1;PMS_P2;Temp;Humidity;BMP_temperature;BMP_pressure;BME280_temperature;BME280_humidity;BME280_pressure;Samples;Min_cycle;Max_cycle;Signal;HPM_P1;HPM_P2
2022/11/15 00:01:51;;;;;;;8.45;4.28;;;;;;;;;;4914746;29;20062;-75
2022/11/15 00:04:36;;;;;;;2.22;1.70;;;;;;;;;;4904985;29;20040;-75
2022/11/15 00:07:20;;;;;;;3.42;1.42;;;;;;;;;;4908840;29;20040;-77
2022/11/15 00:10:05;;;;;;;2.50;1.70;;;;;;;;;;4936270;29;20038;-76
2022/11/15 00:12:50;;;;;;;1.83;1.73;;;;;;;;;;4948214;29;20138;-76
2022/11/15 00:15:35;;;;;;;2.72;1.83;;;;;;;;;;4948645;29;20083;-77
2022/11/15 00:18:20;;;;;;;1.80;1.70;;;;;;;;;;4922793;29;20122;-76
2022/11/15 00:21:06;;;;;;;6.00;2.22;;;;;;;;;;4930961;29;20084;-77
2022/11/15 00:23:51;;;;;;;3.28;2.38;;;;;;;;;;4946914;29;20036;-77
2022/11/15 00:26:35;;;;;;;6.15;2.45;;;;;;;;;;4920035;29;20043;-77
2022/11/15 00:29:20;;;;;;;1.90;1.80;;;;;;;;;;4949346;29;20538;-75
2022/11/15 00:32:05;;;;;;;3.03;2.30;;;;;;;;;;4945527;29;20051;-77
2022/11/15 00:34:49;;;;;;;3.20;1.90;;;;;;;;;;4932456;29;20093;-76
2022/11/15 00:37:33;;;;;;;2.78;2.00;;;;;;;;;;4900286;29;20508;-76
2022/11/15 00:40:18;;;;;;;1.70;1.60;;;;;;;;;;4929735;29;20758;-77
2022/11/15 00:43:03;;;;;;;5.72;2.22;;;;;;;;;;4930533;29;20031;-76
2022/11/15 00:45:47;;;;;;;1.55;1.50;;;;;;;;;;4932037;29;20047;-75
2022/11/15 00:48:31;;;;;;;1.92;1.83;;;;;;;;;;4933131;29;20043;-77
2022/11/15 00:51:16;;;;;;;1.85;1.75;;;;;;;;;;4931276;29;20150;-77
2022/11/15 00:54:00;;;;;;;1.98;1.25;;;;;;;;;;4931821;29;20063;-76
2022/11/15 00:56:45;;;;;;;2.33;1.80;;;;;;;;;;4931477;29;20564;-77
2022/11/15 00:59:29;;;;;;;2.15;2.05;;;;;;;;;;4931018;29;20471;-76
2022/11/15 01:02:14;;;;;;;1.90;1.77;;;;;;;;;;4900342;29;20032;-76
2022/11/15 01:04:59;;;;;;;1.55;1.45;;;;;;;;;;4931086;29;20032;-77
2022/11/15 01:07:43;;;;;;;1.98;1.88;;;;;;;;;;4930955;29;20094;-77
2022/11/15 01:10:28;;;;;;;2.78;1.60;;;;;;;;;;4934453;29;20463;-77
2022/11/15 01:13:13;;;;;;;1.77;1.67;;;;;;;;;;4933215;29;20544;-77
2022/11/15 01:15:57;;;;;;;2.08;1.92;;;;;;;;;;4934543;29;20063;-76
2022/11/15 01:18:41;;;;;;;1.75;1.65;;;;;;;;;;4934407;29;20424;-77
2022/11/15 01:21:26;;;;;;;2.67;1.83;;;;;;;;;;4934311;29;20059;-76
2022/11/15 01:24:14;;;;;;;1.73;1.65;;;;;;;;;;4933122;29;20039;-77
2022/11/15 01:26:58;;;;;;;1.67;1.58;;;;;;;;;;4932516;29;20039;-77
2022/11/15 01:29:43;;;;;;;3.60;2.08;;;;;;;;;;4919938;29;20036;-78
2022/11/15 01:32:28;;;;;;;1.98;1.88;;;;;;;;;;4934140;29;20069;-76
2022/11/15 01:35:13;;;;;;;8.90;2.28;;;;;;;;;;4948607;29;20107;-77
2022/11/15 01:37:57;;;;;;;7.63;1.75;;;;;;;;;;4954099;29;20036;-76
2022/11/15 01:40:42;;;;;;;4.03;2.63;;;;;;;;;;4949754;29;20035;-75
2022/11/15 01:43:27;;;;;;;2.20;2.10;;;;;;;;;;4968638;28;20066;-77
2022/11/15 01:46:30;;;;;;;5.15;1.90;;;;;;;;;;4964838;28;20110;-76
2022/11/15 01:52:19;;;;;;;7.85;2.10;;;;;;;;;;4955231;28;20071;-76
2022/11/15 01:55:08;;;;;;;2.30;2.10;;;;;;;;;;4947228;29;20148;-75
2022/11/15 01:57:57;;;;;;;4.60;2.05;;;;;;;;;;4951182;29;20039;-77
2022/11/15 02:00:41;;;;;;;2.10;2.00;;;;;;;;;;4921030;29;20036;-77
2022/11/15 02:03:26;;;;;;;3.30;1.90;;;;;;;;;;4919706;29;20082;-75
2022/11/15 02:06:11;;;;;;;2.30;2.10;;;;;;;;;;4934748;29;20035;-76
2022/11/15 02:08:55;;;;;;;2.42;2.22;;;;;;;;;;4919414;29;20048;-76
2022/11/15 02:11:40;;;;;;;6.97;2.00;;;;;;;;;;4932771;29;20040;-75
2022/11/15 02:14:25;;;;;;;4.90;2.17;;;;;;;;;;4933694;29;20032;-76
2022/11/15 02:17:28;;;;;;;3.00;1.80;;;;;;;;;;4933392;29;20509;-77
2022/11/15 02:20:19;;;;;;;4.60;3.05;;;;;;;;;;4928335;29;20517;-78
2022/11/15 02:23:09;;;;;;;6.32;4.18;;;;;;;;;;4914397;29;20092;-78
2022/11/15 02:26:12;;;;;;;13.65;5.38;;;;;;;;;;4915828;29;20416;-77
2022/11/15 02:29:20;;;;;;;5.20;3.17;;;;;;;;;;4914478;29;20036;-76
2022/11/15 02:32:13;;;;;;;5.57;3.85;;;;;;;;;;4894110;29;20493;-76
2022/11/15 02:35:02;;;;;;;2.83;2.50;;;;;;;;;;4914327;29;20080;-77
2022/11/15 02:37:50;;;;;;;3.00;2.15;;;;;;;;;;4886759;29;20052;-77
2022/11/15 02:40:55;;;;;;;2.63;2.03;;;;;;;;;;4914055;29;20576;-76
2022/11/15 02:43:57;;;;;;;2.10;2.00;;;;;;;;;;4913997;29;20044;-75
2022/11/15 02:49:47;;;;;;;3.50;1.50;;;;;;;;;;4932189;29;20119;-76
2022/11/15 02:52:32;;;;;;;1.63;1.40;;;;;;;;;;4904711;29;20048;-76
2022/11/15 02:55:26;;;;;;;1.90;1.70;;;;;;;;;;4931333;29;20489;-76
2022/11/15 02:58:17;;;;;;;1.40;1.30;;;;;;;;;;4932394;29;20051;-77
2022/11/15 03:01:18;;;;;;;5.10;1.58;;;;;;;;;;4932156;29;20032;-75
2022/11/15 03:04:08;;;;;;;2.35;2.10;;;;;;;;;;4931678;29;20047;-76
2022/11/15 03:07:10;;;;;;;3.28;1.50;;;;;;;;;;4931373;29;20099;-76
2022/11/15 03:10:02;;;;;;;2.35;1.77;;;;;;;;;;4932497;29;20050;-75
2022/11/15 03:12:49;;;;;;;0.90;0.90;;;;;;;;;;4931301;29;20050;-74
2022/11/15 03:15:36;;;;;;;3.78;1.70;;;;;;;;;;4931419;29;20043;-75
2022/11/15 03:18:29;;;;;;;6.93;0.93;;;;;;;;;;4931939;29;20067;-75
2022/11/15 03:21:14;;;;;;;4.75;1.40;;;;;;;;;;4930865;29;20094;-76
2022/11/15 03:23:58;;;;;;;2.05;1.95;;;;;;;;;;4931151;29;20039;-74
2022/11/15 03:26:42;;;;;;;0.82;0.82;;;;;;;;;;4932305;29;20043;-76
2022/11/15 03:29:28;;;;;;;2.03;1.85;;;;;;;;;;4930688;29;20044;-75
2022/11/15 03:32:13;;;;;;;8.32;1.30;;;;;;;;;;4929829;29;20063;-76
2022/11/15 03:35:01;;;;;;;1.65;1.55;;;;;;;;;;4930888;29;20046;-76
2022/11/15 03:37:49;;;;;;;3.30;1.77;;;;;;;;;;4917591;29;20055;-74
2022/11/15 03:40:36;;;;;;;2.78;1.65;;;;;;;;;;4930539;29;20467;-74
2022/11/15 03:43:20;;;;;;;4.72;1.80;;;;;;;;;;4930023;29;20523;-74
2022/11/15 03:46:06;;;;;;;1.33;1.23;;;;;;;;;;4930155;29;20456;-76
2022/11/15 03:48:52;;;;;;;1.88;1.50;;;;;;;;;;4917605;29;20524;-75
2022/11/15 03:51:36;;;;;;;1.52;1.42;;;;;;;;;;4918463;29;20079;-75
2022/11/15 03:54:21;;;;;;;1.50;1.45;;;;;;;;;;4931863;29;20032;-76
2022/11/15 03:57:06;;;;;;;1.75;1.63;;;;;;;;;;4932229;29;20094;-75
2022/11/15 03:59:50;;;;;;;1.02;1.02;;;;;;;;;;4931424;29;20039;-75
2022/11/15 04:02:35;;;;;;;2.47;1.33;;;;;;;;;;4931618;29;20047;-75
2022/11/15 04:05:19;;;;;;;4.95;1.58;;;;;;;;;;4931469;29;20547;-76
2022/11/15 04:08:04;;;;;;;2.55;1.83;;;;;;;;;;4929576;29;20066;-76
2022/11/15 04:10:48;;;;;;;1.45;1.35;;;;;;;;;;4929933;29;20447;-75
2022/11/15 04:13:33;;;;;;;1.20;1.20;;;;;;;;;;4928691;29;20055;-75
2022/11/15 04:16:17;;;;;;;1.08;1.08;;;;;;;;;;4927661;29;20075;-74
2022/11/15 04:25:10;;;;;;;1.40;1.35;;;;;;;;;;4927685;29;20452;-74
2022/11/15 04:27:55;;;;;;;1.70;1.40;;;;;;;;;;4923123;29;20074;-74
2022/11/15 04:30:39;;;;;;;3.42;1.70;;;;;;;;;;4922354;29;20094;-74
2022/11/15 04:33:23;;;;;;;3.53;1.80;;;;;;;;;;4909917;29;20412;-75
2022/11/15 04:39:11;;;;;;;2.45;2.15;;;;;;;;;;4910084;29;20119;-75
2022/11/15 04:41:56;;;;;;;2.50;2.00;;;;;;;;;;4909529;29;20508;-75
2022/11/15 04:44:40;;;;;;;3.00;1.75;;;;;;;;;;4896177;29;20040;-76
2022/11/15 04:47:25;;;;;;;3.47;2.22;;;;;;;;;;4928562;29;20067;-73
2022/11/15 04:50:12;;;;;;;2.20;2.00;;;;;;;;;;4922087;29;20119;-73
2022/11/15 04:52:56;;;;;;;3.78;1.70;;;;;;;;;;4925729;29;20126;-73
2022/11/15 04:55:44;;;;;;;2.92;2.60;;;;;;;;;;4924830;29;20066;-73
2022/11/15 04:58:28;;;;;;;1.63;1.52;;;;;;;;;;4926575;29;20044;-74
2022/11/15 05:01:16;;;;;;;1.88;1.77;;;;;;;;;;4920930;29;20048;-74
2022/11/15 05:07:06;;;;;;;4.18;1.67;;;;;;;;;;4923183;29;20031;-76
2022/11/15 05:09:51;;;;;;;9.57;1.70;;;;;;;;;;4922519;29;20048;-72
2022/11/15 05:12:36;;;;;;;1.83;1.70;;;;;;;;;;4919903;29;20088;-73
2022/11/15 05:15:20;;;;;;;6.03;2.00;;;;;;;;;;4925147;29;20095;-73
2022/11/15 05:18:05;;;;;;;2.22;1.90;;;;;;;;;;4927204;29;20040;-73
2022/11/15 05:20:50;;;;;;;1.15;1.15;;;;;;;;;;4935938;29;20744;-73
2022/11/15 05:23:34;;;;;;;4.80;1.90;;;;;;;;;;4946950;29;20035;-73
2022/11/15 05:26:19;;;;;;;1.75;1.65;;;;;;;;;;4932139;29;20089;-73
2022/11/15 05:29:03;;;;;;;1.80;1.70;;;;;;;;;;4945200;29;20094;-73
2022/11/15 05:31:47;;;;;;;2.03;1.83;;;;;;;;;;4943697;29;20571;-73
2022/11/15 05:34:32;;;;;;;1.80;1.70;;;;;;;;;;4946221;29;20050;-73
2022/11/15 05:37:16;;;;;;;2.20;1.98;;;;;;;;;;4945181;29;20661;-73
2022/11/15 05:40:01;;;;;;;3.80;1.90;;;;;;;;;;4932453;29;20035;-72
2022/11/15 05:42:45;;;;;;;2.33;2.17;;;;;;;;;;4946652;29;20122;-72
2022/11/15 05:45:31;;;;;;;1.27;1.17;;;;;;;;;;4945098;29;20125;-73
2022/11/15 05:48:15;;;;;;;1.17;1.15;;;;;;;;;;4943786;29;20071;-73
2022/11/15 05:51:00;;;;;;;2.58;1.92;;;;;;;;;;4946442;29;20051;-74
2022/11/15 05:53:44;;;;;;;3.63;2.08;;;;;;;;;;4946649;28;20417;-73
2022/11/15 05:56:29;;;;;;;3.15;2.40;;;;;;;;;;4950037;29;20468;-73
2022/11/15 05:59:13;;;;;;;7.18;2.15;;;;;;;;;;4948983;28;20542;-73
2022/11/15 06:01:58;;;;;;;4.10;2.97;;;;;;;;;;4948773;28;20032;-73
2022/11/15 06:04:42;;;;;;;3.92;2.53;;;;;;;;;;4946968;29;20078;-74
2022/11/15 06:07:28;;;;;;;5.72;2.65;;;;;;;;;;4946207;29;20677;-73
2022/11/15 06:10:13;;;;;;;2.88;2.03;;;;;;;;;;4941632;29;20066;-74
2022/11/15 06:13:00;;;;;;;2.00;1.70;;;;;;;;;;4949294;29;20039;-76
2022/11/15 06:15:45;;;;;;;6.32;2.10;;;;;;;;;;4949633;29;20031;-72
2022/11/15 06:18:31;;;;;;;1.77;1.67;;;;;;;;;;4949210;29;20039;-74
2022/11/15 06:21:16;;;;;;;2.17;1.63;;;;;;;;;;4948022;29;20075;-74
2022/11/15 06:24:01;;;;;;;1.55;1.45;;;;;;;;;;4947113;29;20464;-74
2022/11/15 06:26:45;;;;;;;1.50;1.50;;;;;;;;;;4949532;29;20039;-75
2022/11/15 06:29:30;;;;;;;2.40;2.30;;;;;;;;;;4946737;29;20031;-74
2022/11/15 06:32:14;;;;;;;1.58;1.50;;;;;;;;;;4948665;29;20047;-75
2022/11/15 06:34:59;;;;;;;4.72;2.20;;;;;;;;;;4949479;29;20027;-74
2022/11/15 06:37:43;;;;;;;3.13;2.47;;;;;;;;;;4946235;29;20590;-73
2022/11/15 06:40:28;;;;;;;2.45;1.88;;;;;;;;;;4949007;29;20122;-74
2022/11/15 06:43:12;;;;;;;3.55;2.38;;;;;;;;;;4949071;29;20223;-74
2022/11/15 06:46:00;;;;;;;2.22;2.13;;;;;;;;;;4947902;29;20035;-74
2022/11/15 06:48:44;;;;;;;2.67;2.33;;;;;;;;;;4949424;29;20154;-74
2022/11/15 06:51:29;;;;;;;2.22;2.05;;;;;;;;;;4934427;29;20085;-74
2022/11/15 06:54:13;;;;;;;5.03;2.35;;;;;;;;;;4948399;29;20504;-76
2022/11/15 06:56:57;;;;;;;3.03;2.05;;;;;;;;;;4947228;29;20039;-74
2022/11/15 06:59:42;;;;;;;3.28;1.80;;;;;;;;;;4949363;29;20125;-74
2022/11/15 07:02:27;;;;;;;4.03;2.33;;;;;;;;;;4930668;29;20054;-74
2022/11/15 07:05:11;;;;;;;3.92;1.83;;;;;;;;;;4948771;28;20031;-75
2022/11/15 07:07:56;;;;;;;2.20;1.83;;;;;;;;;;4948180;29;20059;-75
2022/11/15 07:10:40;;;;;;;8.10;2.20;;;;;;;;;;4948789;29;20043;-75
2022/11/15 07:13:25;;;;;;;3.28;2.10;;;;;;;;;;4945911;29;20070;-74
2022/11/15 07:16:10;;;;;;;5.13;4.18;;;;;;;;;;4948691;29;20074;-74
2022/11/15 07:18:55;;;;;;;1.85;1.75;;;;;;;;;;4916674;29;20046;-74
2022/11/15 07:21:39;;;;;;;3.03;2.22;;;;;;;;;;4934189;29;20472;-74
2022/11/15 07:24:23;;;;;;;3.35;2.33;;;;;;;;;;4948063;29;20038;-73
2022/11/15 07:27:08;;;;;;;2.85;1.65;;;;;;;;;;4933984;29;20035;-74
2022/11/15 07:29:52;;;;;;;2.75;2.17;;;;;;;;;;4938753;29;20570;-75
2022/11/15 07:32:37;;;;;;;2.25;2.05;;;;;;;;;;4917080;29;20079;-74
2022/11/15 07:35:21;;;;;;;3.42;2.03;;;;;;;;;;4947793;29;20424;-73
2022/11/15 07:38:06;;;;;;;3.50;2.35;;;;;;;;;;4948444;29;20509;-72
2022/11/15 07:40:58;;;;;;;2.42;2.10;;;;;;;;;;4917605;29;20654;-73
2022/11/15 07:43:42;;;;;;;5.65;2.38;;;;;;;;;;4917808;29;20035;-74
2022/11/15 07:46:27;;;;;;;3.47;2.72;;;;;;;;;;4948105;29;20035;-74
2022/11/15 07:49:11;;;;;;;8.13;2.42;;;;;;;;;;4946103;29;20098;-74
2022/11/15 07:51:56;;;;;;;5.43;2.95;;;;;;;;;;4948200;29;20123;-75
2022/11/15 07:54:40;;;;;;;5.38;2.53;;;;;;;;;;4926463;28;20039;-74
2022/11/15 07:57:26;;;;;;;3.75;2.25;;;;;;;;;;4948493;29;20046;-73
2022/11/15 08:00:10;;;;;;;4.55;2.80;;;;;;;;;;4949106;29;20035;-74
2022/11/15 08:03:05;;;;;;;1.95;1.85;;;;;;;;;;4953360;29;20055;-75
2022/11/15 08:05:50;;;;;;;5.95;3.03;;;;;;;;;;4955521;29;20062;-74
2022/11/15 08:08:34;;;;;;;7.35;2.08;;;;;;;;;;4920984;29;20027;-74
2022/11/15 08:11:19;;;;;;;4.10;2.00;;;;;;;;;;4953046;29;20042;-75
2022/11/15 08:14:03;;;;;;;4.88;3.42;;;;;;;;;;4934948;29;20074;-74
2022/11/15 08:16:48;;;;;;;2.85;2.65;;;;;;;;;;4932434;28;20031;-75
2022/11/15 08:19:33;;;;;;;3.58;2.42;;;;;;;;;;4947232;29;20636;-73
2022/11/15 08:22:18;;;;;;;6.03;2.88;;;;;;;;;;4933351;29;20125;-73
2022/11/15 08:25:02;;;;;;;3.63;2.58;;;;;;;;;;4931132;29;20133;-74
2022/11/15 08:27:47;;;;;;;1.75;1.65;;;;;;;;;;4944919;29;20042;-73
2022/11/15 08:30:41;;;;;;;10.63;2.47;;;;;;;;;;4929657;29;20039;-74
2022/11/15 08:33:25;;;;;;;4.28;2.83;;;;;;;;;;4932485;29;20542;-73
2022/11/15 08:36:13;;;;;;;4.85;2.80;;;;;;;;;;4933021;29;20031;-73
2022/11/15 08:38:58;;;;;;;3.50;2.35;;;;;;;;;;4916573;29;20035;-74
2022/11/15 08:41:42;;;;;;;3.05;2.22;;;;;;;;;;4932696;29;20039;-74
2022/11/15 08:44:27;;;;;;;5.03;2.35;;;;;;;;;;4945799;29;20035;-74
2022/11/15 08:47:12;;;;;;;2.42;2.22;;;;;;;;;;4924273;29;20621;-73
2022/11/15 08:49:56;;;;;;;6.63;2.55;;;;;;;;;;4947055;29;20126;-74
2022/11/15 08:52:41;;;;;;;6.32;2.80;;;;;;;;;;4947292;29;20598;-75
2022/11/15 08:55:25;;;;;;;2.58;1.52;;;;;;;;;;4946691;29;20043;-74
2022/11/15 08:58:10;;;;;;;6.15;2.35;;;;;;;;;;4947126;29;20043;-73
2022/11/15 09:00:55;;;;;;;2.90;2.60;;;;;;;;;;4932216;28;20464;-74
2022/11/15 09:03:39;;;;;;;3.22;2.45;;;;;;;;;;4944444;29;20038;-74
2022/11/15 09:06:24;;;;;;;6.93;2.30;;;;;;;;;;4929208;29;20457;-75
2022/11/15 09:09:08;;;;;;;7.05;2.38;;;;;;;;;;4936486;29;20039;-74
2022/11/15 09:11:52;;;;;;;7.15;2.58;;;;;;;;;;4927593;29;20548;-75
2022/11/15 09:14:36;;;;;;;2.75;2.53;;;;;;;;;;4946785;29;20042;-73
2022/11/15 09:17:21;;;;;;;6.65;2.30;;;;;;;;;;4946867;29;20079;-73
2022/11/15 09:20:06;;;;;;;8.05;2.25;;;;;;;;;;4944494;29;20063;-73
2022/11/15 09:22:50;;;;;;;3.40;2.78;;;;;;;;;;4944172;29;20123;-74
2022/11/15 09:25:35;;;;;;;2.85;2.20;;;;;;;;;;4942415;29;20163;-74
2022/11/15 09:28:20;;;;;;;4.30;2.75;;;;;;;;;;4931344;28;20047;-74
2022/11/15 09:31:04;;;;;;;2.47;2.03;;;;;;;;;;4931789;29;20047;-73
2022/11/15 09:33:49;;;;;;;4.50;2.78;;;;;;;;;;4934225;29;20599;-73
2022/11/15 09:36:33;;;;;;;5.25;2.55;;;;;;;;;;4947342;29;20035;-72
2022/11/15 09:39:18;;;;;;;3.72;1.95;;;;;;;;;;4950217;29;20046;-74
2022/11/15 09:42:10;;;;;;;8.30;2.83;;;;;;;;;;4932243;29;20031;-73
2022/11/15 09:45:16;;;;;;;6.43;2.70;;;;;;;;;;4928440;29;20626;-73
2022/11/15 09:48:17;;;;;;;1.88;1.67;;;;;;;;;;4947241;29;20507;-72
2022/11/15 09:51:08;;;;;;;2.97;2.72;;;;;;;;;;4912551;29;20071;-73
2022/11/15 09:53:36;;;;;;;4.28;2.75;;;;;;;;;;4932896;29;20109;-73
2022/11/15 09:56:03;;;;;;;8.82;3.55;;;;;;;;;;4933175;29;20042;-73
2022/11/15 09:58:51;;;;;;;2.67;2.30;;;;;;;;;;4950208;29;20069;-73
2022/11/15 10:01:19;;;;;;;9.32;3.45;;;;;;;;;;4949675;28;20039;-74
2022/11/15 10:03:45;;;;;;;4.28;3.40;;;;;;;;;;4916721;29;20035;-75
2022/11/15 10:06:23;;;;;;;4.03;3.38;;;;;;;;;;4939887;29;20058;-73
2022/11/15 10:08:55;;;;;;;6.03;3.05;;;;;;;;;;4933278;29;20586;-73
2022/11/15 10:11:31;;;;;;;3.05;2.75;;;;;;;;;;4951217;29;20046;-73
2022/11/15 10:13:58;;;;;;;4.55;2.58;;;;;;;;;;4933012;29;20027;-74
2022/11/15 10:16:33;;;;;;;3.70;1.98;;;;;;;;;;4916275;29;20200;-74
2022/11/15 10:19:19;;;;;;;11.73;3.10;;;;;;;;;;4947306;29;20066;-73
2022/11/15 10:21:50;;;;;;;5.38;2.53;;;;;;;;;;4946465;29;20059;-72
2022/11/15 10:24:18;;;;;;;3.70;2.10;;;;;;;;;;4932000;29;20046;-75
2022/11/15 10:26:47;;;;;;;4.00;2.53;;;;;;;;;;4950242;29;20043;-76
2022/11/15 10:29:20;;;;;;;6.72;5.97;;;;;;;;;;4916851;29;20508;-75
2022/11/15 10:31:46;;;;;;;8.25;5.43;;;;;;;;;;4895296;29;20053;-76
2022/11/15 10:34:22;;;;;;;3.30;2.75;;;;;;;;;;4923346;29;20039;-75
2022/11/15 10:36:54;;;;;;;5.38;3.10;;;;;;;;;;4938816;29;20043;-75
2022/11/15 10:39:20;;;;;;;4.82;2.90;;;;;;;;;;4924854;29;20031;-73
2022/11/15 10:41:46;;;;;;;4.57;2.78;;;;;;;;;;4945911;28;20038;-77
2022/11/15 10:44:20;;;;;;;5.57;2.60;;;;;;;;;;4915042;29;20036;-73
2022/11/15 10:46:55;;;;;;;4.10;2.75;;;;;;;;;;4949423;29;20463;-73
2022/11/15 10:49:25;;;;;;;9.45;3.53;;;;;;;;;;4922188;29;20038;-75
2022/11/15 10:52:00;;;;;;;7.35;2.60;;;;;;;;;;4946304;29;20047;-79
2022/11/15 10:54:27;;;;;;;4.00;2.60;;;;;;;;;;4916237;29;20035;-79
2022/11/15 10:56:55;;;;;;;2.75;2.55;;;;;;;;;;4949522;29;20073;-81
2022/11/15 10:59:24;;;;;;;7.85;3.03;;;;;;;;;;4949178;29;20858;-81
2022/11/15 11:01:50;;;;;;;4.93;2.50;;;;;;;;;;4897486;29;20042;-81
2022/11/15 11:04:16;;;;;;;5.07;2.85;;;;;;;;;;4932657;29;20043;-81
2022/11/15 11:06:49;;;;;;;5.68;2.97;;;;;;;;;;4911836;29;20122;-80
2022/11/15 11:09:35;;;;;;;1.73;1.63;;;;;;;;;;4945749;29;20093;-78
2022/11/15 11:12:04;;;;;;;3.03;2.58;;;;;;;;;;4927730;29;20047;-77
2022/11/15 11:14:31;;;;;;;6.10;2.40;;;;;;;;;;4948953;29;20034;-78
2022/11/15 11:16:57;;;;;;;3.90;2.30;;;;;;;;;;4891503;29;20066;-80
2022/11/15 11:19:38;;;;;;;6.10;2.33;;;;;;;;;;4913179;29;20047;-81
2022/11/15 11:22:04;;;;;;;;;;;;;;;;;;4954729;29;20130;-82
2022/11/15 11:24:36;;;;;;;4.93;1.90;;;;;;;;;;4938954;29;19914;-82
2022/11/15 11:27:28;;;;;;;7.65;2.70;;;;;;;;;;4960564;29;20038;-81
2022/11/15 11:30:06;;;;;;;5.78;2.80;;;;;;;;;;4929361;29;20031;-82
2022/11/15 11:32:35;;;;;;;3.50;2.22;;;;;;;;;;4927166;29;20513;-81
2022/11/15 11:35:01;;;;;;;7.75;3.20;;;;;;;;;;4932746;29;20504;-80
2022/11/15 11:37:35;;;;;;;3.00;2.22;;;;;;;;;;4948681;29;20073;-79
2022/11/15 11:40:19;;;;;;;2.92;2.50;;;;;;;;;;4950344;29;20034;-82
2022/11/15 11:42:48;;;;;;;2.35;2.15;;;;;;;;;;4950385;29;20049;-82
2022/11/15 11:45:33;;;;;;;6.30;2.45;;;;;;;;;;4933705;29;20091;-82
2022/11/15 11:48:09;;;;;;;2.90;2.47;;;;;;;;;;4930865;29;20044;-81
2022/11/15 11:50:36;;;;;;;4.10;1.92;;;;;;;;;;4949596;29;20562;-81
2022/11/15 11:53:08;;;;;;;2.83;1.98;;;;;;;;;;4933043;29;20035;-82
2022/11/15 11:55:38;;;;;;;5.50;2.70;;;;;;;;;;4932361;28;20043;-81
2022/11/15 11:58:08;;;;;;;3.13;2.58;;;;;;;;;;4934104;29;20051;-81
2022/11/15 12:00:35;;;;;;;2.78;2.40;;;;;;;;;;4901864;28;20622;-81
2022/11/15 12:03:07;;;;;;;4.13;2.63;;;;;;;;;;4946903;29;20046;-80
2022/11/15 12:05:40;;;;;;;5.78;2.83;;;;;;;;;;4947857;29;20050;-80
2022/11/15 12:08:16;;;;;;;2.97;2.63;;;;;;;;;;4935376;29;20069;-81
2022/11/15 12:10:42;;;;;;;2.72;2.03;;;;;;;;;;4946865;29;20043;-82
2022/11/15 12:13:13;;;;;;;4.47;2.55;;;;;;;;;;4932376;29;20043;-81
2022/11/15 12:15:43;;;;;;;3.92;1.80;;;;;;;;;;4930770;29;20027;-81
2022/11/15 12:18:12;;;;;;;6.22;2.80;;;;;;;;;;4928799;29;20039;-82
2022/11/15 12:20:39;;;;;;;8.73;5.50;;;;;;;;;;4932532;29;20562;-81
2022/11/15 12:23:31;;;;;;;7.40;3.85;;;;;;;;;;4950197;29;20062;-81
2022/11/15 12:26:02;;;;;;;5.15;2.90;;;;;;;;;;4927612;29;20139;-81
2022/11/15 12:28:44;;;;;;;3.35;2.30;;;;;;;;;;4923309;29;20783;-81
2022/11/15 12:31:29;;;;;;;3.33;1.77;;;;;;;;;;4949986;29;20051;-82
2022/11/15 12:33:55;;;;;;;3.50;2.28;;;;;;;;;;4947650;29;20024;-80
2022/11/15 12:36:21;;;;;;;4.30;2.55;;;;;;;;;;4915096;29;20555;-77
2022/11/15 12:39:00;;;;;;;8.10;2.88;;;;;;;;;;4947658;29;20039;-79
2022/11/15 12:41:26;;;;;;;11.98;2.78;;;;;;;;;;4923085;29;20031;-79
2022/11/15 12:43:51;;;;;;;8.05;4.80;;;;;;;;;;4930780;29;20129;-78
2022/11/15 12:46:30;;;;;;;7.20;2.53;;;;;;;;;;4930438;29;20067;-78
2022/11/15 12:48:57;;;;;;;5.75;2.97;;;;;;;;;;4946524;29;20463;-78
2022/11/15 12:51:41;;;;;;;7.13;2.38;;;;;;;;;;4947086;29;20043;-80
2022/11/15 12:54:23;;;;;;;2.80;2.45;;;;;;;;;;4930089;29;20486;-81
2022/11/15 12:56:48;;;;;;;;;;;;;;;;;;4924274;29;20098;-79
2022/11/15 12:59:34;;;;;;;2.95;2.25;;;;;;;;;;4921301;29;20391;-78
2022/11/15 13:02:00;;;;;;;4.88;2.20;;;;;;;;;;4947207;28;20166;-77
2022/11/15 13:04:26;;;;;;;3.00;2.22;;;;;;;;;;4933292;29;20695;-79
2022/11/15 13:07:02;;;;;;;2.30;2.17;;;;;;;;;;4918570;29;20066;-79
2022/11/15 13:09:28;;;;;;;3.05;2.78;;;;;;;;;;4951375;29;20035;-79
2022/11/15 13:11:54;;;;;;;4.45;2.90;;;;;;;;;;4951256;29;20050;-80
2022/11/15 13:14:39;;;;;;;6.90;2.40;;;;;;;;;;4950731;29;20031;-79
2022/11/15 13:17:24;;;;;;;7.40;2.70;;;;;;;;;;4949445;29;20032;-81
2022/11/15 13:20:03;;;;;;;3.42;2.50;;;;;;;;;;4916025;29;20491;-81
2022/11/15 13:25:41;;;;;;;3.25;2.95;;;;;;;;;;4947345;29;20027;-81
2022/11/15 13:28:17;;;;;;;8.93;2.92;;;;;;;;;;4922597;29;20035;-80
2022/11/15 13:30:46;;;;;;;5.97;3.97;;;;;;;;;;4932751;29;20066;-80
2022/11/15 13:33:16;;;;;;;4.20;2.90;;;;;;;;;;4930033;29;20047;-79
2022/11/15 13:35:42;;;;;;;7.28;3.53;;;;;;;;;;4917996;29;20039;-81
2022/11/15 13:38:17;;;;;;;3.15;2.90;;;;;;;;;;4929037;29;20061;-79
2022/11/15 13:40:43;;;;;;;8.65;2.83;;;;;;;;;;4913221;29;20039;-79
2022/11/15 13:43:27;;;;;;;9.18;4.30;;;;;;;;;;4934066;29;20039;-78
2022/11/15 13:46:05;;;;;;;13.93;6.20;;;;;;;;;;4958066;29;20066;-78
2022/11/15 13:48:33;;;;;;;8.00;4.72;;;;;;;;;;4966855;29;20807;-78
2022/11/15 13:51:00;;;;;;;6.68;3.17;;;;;;;;;;4949777;29;20099;-78
2022/11/15 13:53:26;;;;;;;2.60;2.00;;;;;;;;;;4924898;29;20110;-78
2022/11/15 13:55:52;;;;;;;8.68;3.20;;;;;;;;;;4954463;29;20099;-77
2022/11/15 13:58:18;;;;;;;4.90;3.58;;;;;;;;;;4951311;29;20983;-77
2022/11/15 14:00:44;;;;;;;4.88;3.40;;;;;;;;;;4934661;29;20070;-77
2022/11/15 14:03:21;;;;;;;3.08;2.63;;;;;;;;;;4933589;29;20042;-78
2022/11/15 14:06:14;;;;;;;4.22;3.40;;;;;;;;;;4927467;29;20423;-78
2022/11/15 14:09:00;;;;;;;3.03;2.55;;;;;;;;;;4911785;29;20070;-77
2022/11/15 14:11:26;;;;;;;7.47;3.33;;;;;;;;;;4949300;29;20086;-78
2022/11/15 14:14:00;;;;;;;6.95;5.22;;;;;;;;;;4932659;29;20023;-78
2022/11/15 14:16:32;;;;;;;5.63;4.30;;;;;;;;;;4932251;29;20169;-79
2022/11/15 14:18:58;;;;;;;9.00;4.00;;;;;;;;;;4948655;29;20530;-76
2022/11/15 14:21:24;;;;;;;6.80;5.30;;;;;;;;;;4950052;29;20059;-79
2022/11/15 14:23:50;;;;;;;8.88;3.88;;;;;;;;;;4932706;29;20027;-79
2022/11/15 14:26:32;;;;;;;7.07;4.18;;;;;;;;;;4926641;29;20051;-79
2022/11/15 14:29:17;;;;;;;5.47;2.55;;;;;;;;;;4922679;29;20039;-78
2022/11/15 14:31:46;;;;;;;3.88;3.53;;;;;;;;;;4949495;29;20053;-79
2022/11/15 14:34:12;;;;;;;2.55;2.35;;;;;;;;;;4948745;29;20031;-78
2022/11/15 14:36:37;;;;;;;6.70;3.72;;;;;;;;;;4951867;28;20770;-78
2022/11/15 14:39:05;;;;;;;2.45;2.25;;;;;;;;;;4935633;29;20058;-79
2022/11/15 14:41:34;;;;;;;6.80;3.40;;;;;;;;;;4932465;29;20667;-81
2022/11/15 14:43:59;;;;;;;1.83;1.73;;;;;;;;;;4916908;29;20130;-79
2022/11/15 14:46:25;;;;;;;2.67;2.10;;;;;;;;;;4950056;29;20132;-79
2022/11/15 14:48:51;;;;;;;5.05;3.88;;;;;;;;;;4932406;29;20039;-79
2022/11/15 14:51:18;;;;;;;10.18;2.90;;;;;;;;;;4931525;29;20058;-80
2022/11/15 14:53:44;;;;;;;6.53;2.95;;;;;;;;;;4947603;29;20062;-78
2022/11/15 14:56:10;;;;;;;2.47;2.30;;;;;;;;;;4937051;29;20077;-81
2022/11/15 14:58:36;;;;;;;5.45;3.17;;;;;;;;;;4948169;29;20067;-80
2022/11/15 15:01:02;;;;;;;3.40;3.00;;;;;;;;;;4930505;29;20102;-79
2022/11/15 15:03:29;;;;;;;3.20;3.00;;;;;;;;;;4931813;29;20125;-78
2022/11/15 15:05:56;;;;;;;4.10;2.58;;;;;;;;;;4946812;29;20122;-79
2022/11/15 15:08:22;;;;;;;2.40;2.30;;;;;;;;;;4949494;29;20054;-79
2022/11/15 15:10:47;;;;;;;2.92;2.25;;;;;;;;;;4930726;29;20027;-80
2022/11/15 15:13:13;;;;;;;3.53;2.30;;;;;;;;;;4949285;29;20617;-79
2022/11/15 15:15:39;;;;;;;10.25;3.08;;;;;;;;;;4949075;29;20420;-77
2022/11/15 15:18:08;;;;;;;2.17;1.98;;;;;;;;;;4949312;29;20039;-81
2022/11/15 15:20:37;;;;;;;6.07;3.25;;;;;;;;;;4948944;29;20066;-80
2022/11/15 15:23:03;;;;;;;7.90;4.40;;;;;;;;;;4931279;29;20879;-79
2022/11/15 15:25:33;;;;;;;10.60;4.15;;;;;;;;;;4948063;29;20131;-80
2022/11/15 15:27:59;;;;;;;6.75;3.80;;;;;;;;;;4947103;28;20034;-79
2022/11/15 15:30:25;;;;;;;4.38;3.97;;;;;;;;;;4944605;28;20055;-79
2022/11/15 15:32:51;;;;;;;11.00;5.10;;;;;;;;;;4949242;29;20043;-80
2022/11/15 15:35:17;;;;;;;10.98;5.55;;;;;;;;;;4948180;29;20518;-80
2022/11/15 15:37:43;;;;;;;8.88;4.75;;;;;;;;;;4927705;29;20519;-79
2022/11/15 15:40:22;;;;;;;8.45;5.38;;;;;;;;;;4940576;28;20114;-79
2022/11/15 15:42:48;;;;;;;9.00;5.32;;;;;;;;;;4945155;29;20082;-79
2022/11/15 15:45:14;;;;;;;6.93;3.67;;;;;;;;;;4948082;29;20038;-80
2022/11/15 15:47:40;;;;;;;6.13;3.85;;;;;;;;;;4908472;29;20039;-78
2022/11/15 15:50:32;;;;;;;6.35;4.40;;;;;;;;;;4948398;29;20570;-79
2022/11/15 15:52:58;;;;;;;3.63;3.33;;;;;;;;;;4936082;28;20057;-79
2022/11/15 15:55:24;;;;;;;7.60;3.97;;;;;;;;;;4905693;29;20067;-80
2022/11/15 15:57:50;;;;;;;4.20;3.13;;;;;;;;;;4948986;29;20031;-79
2022/11/15 16:00:17;;;;;;;4.45;3.65;;;;;;;;;;4947887;29;20464;-78
2022/11/15 16:02:43;;;;;;;3.55;3.22;;;;;;;;;;4905670;29;20035;-78
2022/11/15 16:05:09;;;;;;;5.82;4.25;;;;;;;;;;4920339;29;20106;-78
2022/11/15 16:07:35;;;;;;;6.15;4.13;;;;;;;;;;4911909;29;20086;-79
2022/11/15 16:10:01;;;;;;;7.00;4.68;;;;;;;;;;4915450;29;20582;-79
2022/11/15 16:12:28;;;;;;;9.85;5.00;;;;;;;;;;4920747;29;20090;-80
2022/11/15 16:14:54;;;;;;;10.52;4.60;;;;;;;;;;4928667;29;20038;-80
2022/11/15 16:17:21;;;;;;;5.57;3.65;;;;;;;;;;4930014;29;20039;-78
2022/11/15 16:19:46;;;;;;;6.90;5.57;;;;;;;;;;4947332;29;20078;-78